sensor_id;sensor_type;location;lat;lon;timestamp;P1;durP1;ratioP1;P2;durP2;ratioP2
209;SDS011;90;48.810;9.120;2023-07-20T00:01:31;5.67;;;4.63;;
209;SDS011;90;48.810;9.120;2023-07-20T00:03:58;6.77;;;4.77;;
209;SDS011;90;48.810;9.120;2023-07-20T00:06:25;7.33;;;4.67;;
209;SDS011;90;48.810;9.120;2023-07-20T00:08:54;5.00;;;4.70;;
209;SDS011;90;48.810;9.120;2023-07-20T00:11:21;4.97;;;4.63;;
209;SDS011;90;48.810;9.120;2023-07-20T00:13:58;4.70;;;4.40;;
209;SDS011;90;48.810;9.120;2023-07-20T00:16:25;4.60;;;4.30;;
209;SDS011;90;48.810;9.120;2023-07-20T00:18:57;7.00;;;4.00;;
209;SDS011;90;48.810;9.120;2023-07-20T00:21:24;4.77;;;4.47;;
209;SDS011;90;48.810;9.120;2023-07-20T00:23:56;4.60;;;4.30;;
209;SDS011;90;48.810;9.120;2023-07-20T00:26:26;8.40;;;4.07;;
209;SDS011;90;48.810;9.120;2023-07-20T00:28:56;4.80;;;4.20;;
209;SDS011;90;48.810;9.120;2023-07-20T00:31:26;10.37;;;4.53;;
209;SDS011;90;48.810;9.120;2023-07-20T00:33:54;4.30;;;4.03;;
209;SDS011;90;48.810;9.120;2023-07-20T00:36:21;4.47;;;4.17;;
209;SDS011;90;48.810;9.120;2023-07-20T00:38:49;4.93;;;4.07;;
209;SDS011;90;48.810;9.120;2023-07-20T00:41:17;4.43;;;4.13;;
209;SDS011;90;48.810;9.120;2023-07-20T00:43:45;4.33;;;3.97;;
209;SDS011;90;48.810;9.120;2023-07-20T00:46:14;4.80;;;4.20;;
209;SDS011;90;48.810;9.120;2023-07-20T00:48:43;5.00;;;4.70;;
209;SDS011;90;48.810;9.120;2023-07-20T00:51:10;7.07;;;3.97;;
209;SDS011;90;48.810;9.120;2023-07-20T00:53:43;5.20;;;4.57;;
209;SDS011;90;48.810;9.120;2023-07-20T00:56:15;3.90;;;3.70;;
209;SDS011;90;48.810;9.120;2023-07-20T00:58:46;4.50;;;4.20;;
209;SDS011;90;48.810;9.120;2023-07-20T01:01:19;4.60;;;4.30;;
209;SDS011;90;48.810;9.120;2023-07-20T01:03:47;4.93;;;4.43;;
209;SDS011;90;48.810;9.120;2023-07-20T01:06:15;4.77;;;4.47;;
209;SDS011;90;48.810;9.120;2023-07-20T01:08:53;5.37;;;5.10;;
209;SDS011;90;48.810;9.120;2023-07-20T01:11:33;5.37;;;4.33;;
209;SDS011;90;48.810;9.120;2023-07-20T01:14:08;5.63;;;3.90;;
209;SDS011;90;48.810;9.120;2023-07-20T01:16:38;4.83;;;4.53;;
209;SDS011;90;48.810;9.120;2023-07-20T01:19:05;5.80;;;4.63;;
209;SDS011;90;48.810;9.120;2023-07-20T01:21:37;4.67;;;4.37;;
209;SDS011;90;48.810;9.120;2023-07-20T01:24:38;4.40;;;4.07;;
209;SDS011;90;48.810;9.120;2023-07-20T01:27:40;5.37;;;3.90;;
209;SDS011;90;48.810;9.120;2023-07-20T01:30:18;5.17;;;4.57;;
209;SDS011;90;48.810;9.120;2023-07-20T01:32:50;7.03;;;4.10;;
209;SDS011;90;48.810;9.120;2023-07-20T01:35:28;6.30;;;4.80;;
209;SDS011;90;48.810;9.120;2023-07-20T01:38:03;4.80;;;4.40;;
209;SDS011;90;48.810;9.120;2023-07-20T01:40:30;4.57;;;4.27;;
209;SDS011;90;48.810;9.120;2023-07-20T01:43:00;4.53;;;4.23;;
209;SDS011;90;48.810;9.120;2023-07-20T01:45:28;4.97;;;4.67;;
209;SDS011;90;48.810;9.120;2023-07-20T01:47:57;4.97;;;4.40;;
209;SDS011;90;48.810;9.120;2023-07-20T01:50:31;4.60;;;4.30;;
209;SDS011;90;48.810;9.120;2023-07-20T01:52:59;5.40;;;5.10;;
209;SDS011;90;48.810;9.120;2023-07-20T01:55:32;7.13;;;4.60;;
209;SDS011;90;48.810;9.120;2023-07-20T01:58:00;7.63;;;4.27;;
209;SDS011;90;48.810;9.120;2023-07-20T02:00:28;5.17;;;4.33;;
209;SDS011;90;48.810;9.120;2023-07-20T02:02:59;7.90;;;4.43;;
209;SDS011;90;48.810;9.120;2023-07-20T02:05:26;5.72;;;4.57;;
209;SDS011;90;48.810;9.120;2023-07-20T02:07:55;4.67;;;4.20;;
209;SDS011;90;48.810;9.120;2023-07-20T02:10:26;7.00;;;4.73;;
209;SDS011;90;48.810;9.120;2023-07-20T02:12:57;4.33;;;4.13;;
209;SDS011;90;48.810;9.120;2023-07-20T02:15:24;4.80;;;4.50;;
209;SDS011;90;48.810;9.120;2023-07-20T02:17:59;5.03;;;4.03;;
209;SDS011;90;48.810;9.120;2023-07-20T02:20:31;5.75;;;4.50;;
209;SDS011;90;48.810;9.120;2023-07-20T02:22:58;7.23;;;4.47;;
209;SDS011;90;48.810;9.120;2023-07-20T02:25:28;6.60;;;4.20;;
209;SDS011;90;48.810;9.120;2023-07-20T02:27:58;8.50;;;4.83;;
209;SDS011;90;48.810;9.120;2023-07-20T02:30:25;5.67;;;4.63;;
209;SDS011;90;48.810;9.120;2023-07-20T02:32:57;5.77;;;4.10;;
209;SDS011;90;48.810;9.120;2023-07-20T02:35:28;4.77;;;4.50;;
209;SDS011;90;48.810;9.120;2023-07-20T02:37:57;6.53;;;4.93;;
209;SDS011;90;48.810;9.120;2023-07-20T02:40:31;4.97;;;4.10;;
209;SDS011;90;48.810;9.120;2023-07-20T02:42:59;4.40;;;4.10;;
209;SDS011;90;48.810;9.120;2023-07-20T02:45:26;9.63;;;4.40;;
209;SDS011;90;48.810;9.120;2023-07-20T02:47:56;5.87;;;4.40;;
209;SDS011;90;48.810;9.120;2023-07-20T02:50:23;4.97;;;4.67;;
209;SDS011;90;48.810;9.120;2023-07-20T02:52:59;4.53;;;4.23;;
209;SDS011;90;48.810;9.120;2023-07-20T02:55:30;4.93;;;3.70;;
209;SDS011;90;48.810;9.120;2023-07-20T02:57:57;6.13;;;4.70;;
209;SDS011;90;48.810;9.120;2023-07-20T03:00:33;6.30;;;4.40;;
209;SDS011;90;48.810;9.120;2023-07-20T03:03:01;4.90;;;4.60;;
209;SDS011;90;48.810;9.120;2023-07-20T03:05:28;5.33;;;4.83;;
209;SDS011;90;48.810;9.120;2023-07-20T03:07:59;8.00;;;5.60;;
209;SDS011;90;48.810;9.120;2023-07-20T03:10:28;6.23;;;4.30;;
209;SDS011;90;48.810;9.120;2023-07-20T03:12:55;7.00;;;4.43;;
209;SDS011;90;48.810;9.120;2023-07-20T03:15:24;4.23;;;3.97;;
209;SDS011;90;48.810;9.120;2023-07-20T03:17:54;7.13;;;4.50;;
209;SDS011;90;48.810;9.120;2023-07-20T03:20:23;4.97;;;4.50;;
209;SDS011;90;48.810;9.120;2023-07-20T03:22:50;6.20;;;4.43;;
209;SDS011;90;48.810;9.120;2023-07-20T03:25:22;4.80;;;4.40;;
209;SDS011;90;48.810;9.120;2023-07-20T03:27:49;8.33;;;4.47;;
209;SDS011;90;48.810;9.120;2023-07-20T03:30:19;6.97;;;4.20;;
209;SDS011;90;48.810;9.120;2023-07-20T03:32:48;6.63;;;4.27;;
209;SDS011;90;48.810;9.120;2023-07-20T03:35:17;6.00;;;4.30;;
209;SDS011;90;48.810;9.120;2023-07-20T03:37:48;16.33;;;4.47;;
209;SDS011;90;48.810;9.120;2023-07-20T03:40:22;5.63;;;4.10;;
209;SDS011;90;48.810;9.120;2023-07-20T03:42:52;4.93;;;4.67;;
209;SDS011;90;48.810;9.120;2023-07-20T03:45:19;4.57;;;4.27;;
209;SDS011;90;48.810;9.120;2023-07-20T03:47:49;8.90;;;4.20;;
209;SDS011;90;48.810;9.120;2023-07-20T03:50:16;18.80;;;4.83;;
209;SDS011;90;48.810;9.120;2023-07-20T03:52:46;7.23;;;4.10;;
209;SDS011;90;48.810;9.120;2023-07-20T03:55:14;8.30;;;4.57;;
209;SDS011;90;48.810;9.120;2023-07-20T03:57:43;6.23;;;4.63;;
209;SDS011;90;48.810;9.120;2023-07-20T04:00:17;7.13;;;4.17;;
209;SDS011;90;48.810;9.120;2023-07-20T04:02:46;4.90;;;4.60;;
209;SDS011;90;48.810;9.120;2023-07-20T04:05:16;5.20;;;4.40;;
209;SDS011;90;48.810;9.120;2023-07-20T04:07:47;5.00;;;3.70;;
209;SDS011;90;48.810;9.120;2023-07-20T04:10:16;6.10;;;4.10;;
209;SDS011;90;48.810;9.120;2023-07-20T04:12:47;9.17;;;4.30;;
209;SDS011;90;48.810;9.120;2023-07-20T04:15:23;6.37;;;4.13;;
209;SDS011;90;48.810;9.120;2023-07-20T04:17:52;4.80;;;4.10;;
209;SDS011;90;48.810;9.120;2023-07-20T04:20:23;5.13;;;4.87;;
209;SDS011;90;48.810;9.120;2023-07-20T04:22:56;7.73;;;4.50;;
209;SDS011;90;48.810;9.120;2023-07-20T04:25:26;7.70;;;4.87;;
209;SDS011;90;48.810;9.120;2023-07-20T04:27:57;5.77;;;4.43;;
209;SDS011;90;48.810;9.120;2023-07-20T04:30:24;6.77;;;4.30;;
209;SDS011;90;48.810;9.120;2023-07-20T04:32:51;6.67;;;4.63;;
209;SDS011;90;48.810;9.120;2023-07-20T04:38:15;5.40;;;4.37;;
209;SDS011;90;48.810;9.120;2023-07-20T04:40:44;4.67;;;4.37;;
209;SDS011;90;48.810;9.120;2023-07-20T04:43:17;4.93;;;4.13;;
209;SDS011;90;48.810;9.120;2023-07-20T04:45:52;5.03;;;4.73;;
209;SDS011;90;48.810;9.120;2023-07-20T04:48:20;5.93;;;4.50;;
209;SDS011;90;48.810;9.120;2023-07-20T04:50:48;6.13;;;4.20;;
209;SDS011;90;48.810;9.120;2023-07-20T04:53:16;5.10;;;4.13;;
209;SDS011;90;48.810;9.120;2023-07-20T04:55:47;5.03;;;4.43;;
209;SDS011;90;48.810;9.120;2023-07-20T04:58:19;7.00;;;5.00;;
209;SDS011;90;48.810;9.120;2023-07-20T05:00:49;5.97;;;5.20;;
209;SDS011;90;48.810;9.120;2023-07-20T05:03:21;4.60;;;4.30;;
209;SDS011;90;48.810;9.120;2023-07-20T05:05:52;7.03;;;4.27;;
209;SDS011;90;48.810;9.120;2023-07-20T05:08:20;5.60;;;4.63;;
209;SDS011;90;48.810;9.120;2023-07-20T05:10:50;5.23;;;4.93;;
209;SDS011;90;48.810;9.120;2023-07-20T05:13:18;6.30;;;4.70;;
209;SDS011;90;48.810;9.120;2023-07-20T05:15:51;5.67;;;4.30;;
209;SDS011;90;48.810;9.120;2023-07-20T05:18:18;6.30;;;4.00;;
209;SDS011;90;48.810;9.120;2023-07-20T05:20:50;5.63;;;4.47;;
209;SDS011;90;48.810;9.120;2023-07-20T05:23:26;5.00;;;3.93;;
209;SDS011;90;48.810;9.120;2023-07-20T05:25:55;5.90;;;4.50;;
209;SDS011;90;48.810;9.120;2023-07-20T05:28:36;9.43;;;4.97;;
209;SDS011;90;48.810;9.120;2023-07-20T05:31:10;13.30;;;4.67;;
209;SDS011;90;48.810;9.120;2023-07-20T05:33:38;4.30;;;4.00;;
209;SDS011;90;48.810;9.120;2023-07-20T05:36:10;6.80;;;4.50;;
209;SDS011;90;48.810;9.120;2023-07-20T05:38:40;7.60;;;4.63;;
209;SDS011;90;48.810;9.120;2023-07-20T05:41:14;7.30;;;4.70;;
209;SDS011;90;48.810;9.120;2023-07-20T05:43:45;6.23;;;4.10;;
209;SDS011;90;48.810;9.120;2023-07-20T05:46:12;5.00;;;4.27;;
209;SDS011;90;48.810;9.120;2023-07-20T05:48:39;4.43;;;4.17;;
209;SDS011;90;48.810;9.120;2023-07-20T05:57:04;4.60;;;4.30;;
209;SDS011;90;48.810;9.120;2023-07-20T05:59:53;4.90;;;4.13;;
209;SDS011;90;48.810;9.120;2023-07-20T06:02:22;7.28;;;4.30;;
209;SDS011;90;48.810;9.120;2023-07-20T06:04:55;6.70;;;4.73;;
209;SDS011;90;48.810;9.120;2023-07-20T06:07:26;7.30;;;3.43;;
209;SDS011;90;48.810;9.120;2023-07-20T06:09:56;4.50;;;4.20;;
209;SDS011;90;48.810;9.120;2023-07-20T06:12:30;4.40;;;4.10;;
209;SDS011;90;48.810;9.120;2023-07-20T06:15:03;8.23;;;4.70;;
209;SDS011;90;48.810;9.120;2023-07-20T06:17:30;7.57;;;4.67;;
209;SDS011;90;48.810;9.120;2023-07-20T06:20:01;7.57;;;4.83;;
209;SDS011;90;48.810;9.120;2023-07-20T06:22:28;5.90;;;5.20;;
209;SDS011;90;48.810;9.120;2023-07-20T06:24:55;6.30;;;4.40;;
209;SDS011;90;48.810;9.120;2023-07-20T06:27:31;4.47;;;4.17;;
209;SDS011;90;48.810;9.120;2023-07-20T06:30:06;4.57;;;4.13;;
209;SDS011;90;48.810;9.120;2023-07-20T06:32:38;6.13;;;4.17;;
209;SDS011;90;48.810;9.120;2023-07-20T06:35:11;4.80;;;4.50;;
209;SDS011;90;48.810;9.120;2023-07-20T06:37:39;5.50;;;4.57;;
209;SDS011;90;48.810;9.120;2023-07-20T06:40:06;8.03;;;4.30;;
209;SDS011;90;48.810;9.120;2023-07-20T06:42:35;5.03;;;4.80;;
209;SDS011;90;48.810;9.120;2023-07-20T06:45:10;7.83;;;4.30;;
209;SDS011;90;48.810;9.120;2023-07-20T06:47:47;5.20;;;4.53;;
209;SDS011;90;48.810;9.120;2023-07-20T06:50:15;5.20;;;4.63;;
209;SDS011;90;48.810;9.120;2023-07-20T06:52:42;4.83;;;4.37;;
209;SDS011;90;48.810;9.120;2023-07-20T06:55:09;5.10;;;4.80;;
209;SDS011;90;48.810;9.120;2023-07-20T06:57:39;8.10;;;4.50;;
209;SDS011;90;48.810;9.120;2023-07-20T07:00:08;7.33;;;4.50;;
209;SDS011;90;48.810;9.120;2023-07-20T07:02:45;4.63;;;4.33;;
209;SDS011;90;48.810;9.120;2023-07-20T07:05:12;5.90;;;4.73;;
209;SDS011;90;48.810;9.120;2023-07-20T07:07:41;4.90;;;4.50;;
209;SDS011;90;48.810;9.120;2023-07-20T07:10:10;6.93;;;4.47;;
209;SDS011;90;48.810;9.120;2023-07-20T07:12:39;5.20;;;4.90;;
209;SDS011;90;48.810;9.120;2023-07-20T07:15:08;8.70;;;4.13;;
209;SDS011;90;48.810;9.120;2023-07-20T07:17:37;7.10;;;4.10;;
209;SDS011;90;48.810;9.120;2023-07-20T07:20:08;5.43;;;4.53;;
209;SDS011;90;48.810;9.120;2023-07-20T07:22:36;6.00;;;4.50;;
209;SDS011;90;48.810;9.120;2023-07-20T07:25:03;5.37;;;4.43;;
209;SDS011;90;48.810;9.120;2023-07-20T07:27:36;6.93;;;4.60;;
209;SDS011;90;48.810;9.120;2023-07-20T07:30:07;6.57;;;4.77;;
209;SDS011;90;48.810;9.120;2023-07-20T07:32:53;5.27;;;4.73;;
209;SDS011;90;48.810;9.120;2023-07-20T07:35:20;4.67;;;4.40;;
209;SDS011;90;48.810;9.120;2023-07-20T07:37:48;7.00;;;4.80;;
209;SDS011;90;48.810;9.120;2023-07-20T07:40:17;5.00;;;4.70;;
209;SDS011;90;48.810;9.120;2023-07-20T07:42:49;6.63;;;4.50;;
209;SDS011;90;48.810;9.120;2023-07-20T07:45:16;5.53;;;4.97;;
209;SDS011;90;48.810;9.120;2023-07-20T07:47:43;8.33;;;4.70;;
209;SDS011;90;48.810;9.120;2023-07-20T07:50:12;6.10;;;4.50;;
209;SDS011;90;48.810;9.120;2023-07-20T07:52:41;6.50;;;5.20;;
209;SDS011;90;48.810;9.120;2023-07-20T07:55:08;4.97;;;4.70;;
209;SDS011;90;48.810;9.120;2023-07-20T07:57:35;5.90;;;4.73;;
209;SDS011;90;48.810;9.120;2023-07-20T08:00:05;5.37;;;4.83;;
209;SDS011;90;48.810;9.120;2023-07-20T08:02:40;6.83;;;4.60;;
209;SDS011;90;48.810;9.120;2023-07-20T08:05:08;5.43;;;4.40;;
209;SDS011;90;48.810;9.120;2023-07-20T08:07:37;5.13;;;4.77;;
209;SDS011;90;48.810;9.120;2023-07-20T08:10:04;4.93;;;4.63;;
209;SDS011;90;48.810;9.120;2023-07-20T08:12:37;4.63;;;4.33;;
209;SDS011;90;48.810;9.120;2023-07-20T08:15:09;6.50;;;4.40;;
209;SDS011;90;48.810;9.120;2023-07-20T08:17:38;5.40;;;5.10;;
209;SDS011;90;48.810;9.120;2023-07-20T08:20:06;5.70;;;4.30;;
209;SDS011;90;48.810;9.120;2023-07-20T08:22:37;6.27;;;4.93;;
209;SDS011;90;48.810;9.120;2023-07-20T08:25:08;9.57;;;4.80;;
209;SDS011;90;48.810;9.120;2023-07-20T08:27:37;15.93;;;5.50;;
209;SDS011;90;48.810;9.120;2023-07-20T08:30:06;7.47;;;5.00;;
209;SDS011;90;48.810;9.120;2023-07-20T08:32:35;8.20;;;5.37;;
209;SDS011;90;48.810;9.120;2023-07-20T08:35:04;5.23;;;4.87;;
209;SDS011;90;48.810;9.120;2023-07-20T08:37:32;4.97;;;4.67;;
209;SDS011;90;48.810;9.120;2023-07-20T08:40:03;5.70;;;5.40;;
209;SDS011;90;48.810;9.120;2023-07-20T08:42:33;4.77;;;4.47;;
209;SDS011;90;48.810;9.120;2023-07-20T08:45:01;5.70;;;4.67;;
209;SDS011;90;48.810;9.120;2023-07-20T08:47:32;4.80;;;4.50;;
209;SDS011;90;48.810;9.120;2023-07-20T08:50:00;5.83;;;4.83;;
209;SDS011;90;48.810;9.120;2023-07-20T08:52:31;5.20;;;4.90;;
209;SDS011;90;48.810;9.120;2023-07-20T08:55:03;4.20;;;3.83;;
209;SDS011;90;48.810;9.120;2023-07-20T08:57:30;6.00;;;4.47;;
209;SDS011;90;48.810;9.120;2023-07-20T09:00:03;5.03;;;4.20;;
209;SDS011;90;48.810;9.120;2023-07-20T09:02:31;4.73;;;4.30;;
209;SDS011;90;48.810;9.120;2023-07-20T09:05:10;5.37;;;4.27;;
209;SDS011;90;48.810;9.120;2023-07-20T09:07:41;4.70;;;4.40;;
209;SDS011;90;48.810;9.120;2023-07-20T09:10:09;4.40;;;4.10;;
209;SDS011;90;48.810;9.120;2023-07-20T09:12:39;4.47;;;4.00;;
209;SDS011;90;48.810;9.120;2023-07-20T09:15:10;4.90;;;4.60;;
209;SDS011;90;48.810;9.120;2023-07-20T09:17:43;6.57;;;5.03;;
209;SDS011;90;48.810;9.120;2023-07-20T09:20:12;9.03;;;4.73;;
209;SDS011;90;48.810;9.120;2023-07-20T09:22:42;6.30;;;4.60;;
209;SDS011;90;48.810;9.120;2023-07-20T09:25:12;11.70;;;4.50;;
209;SDS011;90;48.810;9.120;2023-07-20T09:27:40;8.40;;;4.63;;
209;SDS011;90;48.810;9.120;2023-07-20T09:30:09;5.23;;;4.93;;
209;SDS011;90;48.810;9.120;2023-07-20T09:32:43;5.47;;;4.67;;
209;SDS011;90;48.810;9.120;2023-07-20T09:35:13;4.67;;;4.37;;
209;SDS011;90;48.810;9.120;2023-07-20T09:37:51;6.77;;;4.63;;
209;SDS011;90;48.810;9.120;2023-07-20T09:40:24;4.60;;;4.30;;
209;SDS011;90;48.810;9.120;2023-07-20T09:42:51;4.70;;;4.40;;
209;SDS011;90;48.810;9.120;2023-07-20T09:45:27;3.80;;;3.60;;
209;SDS011;90;48.810;9.120;2023-07-20T09:47:57;4.30;;;3.93;;
209;SDS011;90;48.810;9.120;2023-07-20T09:50:29;4.40;;;4.10;;
209;SDS011;90;48.810;9.120;2023-07-20T09:52:56;6.87;;;4.20;;
209;SDS011;90;48.810;9.120;2023-07-20T09:55:31;7.20;;;4.17;;
209;SDS011;90;48.810;9.120;2023-07-20T09:57:58;3.80;;;3.60;;
209;SDS011;90;48.810;9.120;2023-07-20T10:00:26;4.80;;;3.80;;
209;SDS011;90;48.810;9.120;2023-07-20T10:02:53;4.13;;;3.90;;
209;SDS011;90;48.810;9.120;2023-07-20T10:05:24;4.00;;;3.80;;
209;SDS011;90;48.810;9.120;2023-07-20T10:07:56;4.40;;;3.67;;
209;SDS011;90;48.810;9.120;2023-07-20T10:10:31;3.83;;;3.63;;
209;SDS011;90;48.810;9.120;2023-07-20T10:13:00;12.53;;;3.67;;
209;SDS011;90;48.810;9.120;2023-07-20T10:15:32;4.43;;;3.63;;
209;SDS011;90;48.810;9.120;2023-07-20T10:18:06;3.77;;;3.57;;
209;SDS011;90;48.810;9.120;2023-07-20T10:20:39;3.77;;;3.63;;
209;SDS011;90;48.810;9.120;2023-07-20T10:23:08;3.93;;;3.73;;
209;SDS011;90;48.810;9.120;2023-07-20T10:25:37;5.20;;;3.43;;
209;SDS011;90;48.810;9.120;2023-07-20T10:28:08;6.50;;;4.00;;
209;SDS011;90;48.810;9.120;2023-07-20T10:30:38;4.30;;;4.00;;
209;SDS011;90;48.810;9.120;2023-07-20T10:33:08;3.87;;;3.50;;
209;SDS011;90;48.810;9.120;2023-07-20T10:35:50;3.83;;;3.42;;
209;SDS011;90;48.810;9.120;2023-07-20T10:38:17;3.80;;;3.60;;
209;SDS011;90;48.810;9.120;2023-07-20T10:40:55;3.53;;;3.20;;
209;SDS011;90;48.810;9.120;2023-07-20T10:43:23;3.80;;;3.60;;
209;SDS011;90;48.810;9.120;2023-07-20T10:45:53;5.77;;;4.10;;
209;SDS011;90;48.810;9.120;2023-07-20T10:48:23;6.40;;;3.40;;
209;SDS011;90;48.810;9.120;2023-07-20T10:51:10;3.90;;;3.70;;
209;SDS011;90;48.810;9.120;2023-07-20T10:53:39;3.67;;;3.47;;
209;SDS011;90;48.810;9.120;2023-07-20T10:56:08;3.50;;;3.33;;
209;SDS011;90;48.810;9.120;2023-07-20T10:58:41;3.80;;;3.60;;
209;SDS011;90;48.810;9.120;2023-07-20T11:01:13;5.37;;;3.53;;
209;SDS011;90;48.810;9.120;2023-07-20T11:03:40;4.20;;;3.83;;
209;SDS011;90;48.810;9.120;2023-07-20T11:09:03;7.13;;;3.83;;
209;SDS011;90;48.810;9.120;2023-07-20T11:11:33;3.93;;;3.60;;
209;SDS011;90;48.810;9.120;2023-07-20T11:14:03;3.50;;;3.30;;
209;SDS011;90;48.810;9.120;2023-07-20T11:16:34;3.73;;;3.53;;
209;SDS011;90;48.810;9.120;2023-07-20T11:19:03;3.80;;;3.60;;
209;SDS011;90;48.810;9.120;2023-07-20T11:21:35;3.47;;;3.27;;
209;SDS011;90;48.810;9.120;2023-07-20T11:24:04;3.67;;;3.27;;
209;SDS011;90;48.810;9.120;2023-07-20T11:26:46;3.70;;;3.50;;
209;SDS011;90;48.810;9.120;2023-07-20T11:29:14;5.03;;;3.83;;
209;SDS011;90;48.810;9.120;2023-07-20T11:31:45;3.90;;;3.70;;
209;SDS011;90;48.810;9.120;2023-07-20T11:34:17;3.60;;;3.40;;
209;SDS011;90;48.810;9.120;2023-07-20T11:36:46;3.37;;;3.17;;
209;SDS011;90;48.810;9.120;2023-07-20T11:39:14;3.53;;;3.33;;
209;SDS011;90;48.810;9.120;2023-07-20T11:41:50;3.30;;;3.10;;
209;SDS011;90;48.810;9.120;2023-07-20T11:44:18;3.57;;;3.37;;
209;SDS011;90;48.810;9.120;2023-07-20T11:46:59;4.47;;;3.20;;
209;SDS011;90;48.810;9.120;2023-07-20T11:49:27;3.57;;;3.37;;
209;SDS011;90;48.810;9.120;2023-07-20T11:51:54;4.53;;;3.60;;
209;SDS011;90;48.810;9.120;2023-07-20T11:54:25;3.77;;;3.60;;
209;SDS011;90;48.810;9.120;2023-07-20T11:56:55;3.63;;;3.47;;
209;SDS011;90;48.810;9.120;2023-07-20T11:59:24;3.53;;;3.33;;
209;SDS011;90;48.810;9.120;2023-07-20T12:01:53;6.13;;;3.90;;
209;SDS011;90;48.810;9.120;2023-07-20T12:04:22;3.97;;;3.67;;
209;SDS011;90;48.810;9.120;2023-07-20T12:06:49;3.80;;;3.20;;
209;SDS011;90;48.810;9.120;2023-07-20T12:09:19;3.50;;;3.30;;
209;SDS011;90;48.810;9.120;2023-07-20T12:11:48;3.53;;;3.33;;
209;SDS011;90;48.810;9.120;2023-07-20T12:14:17;3.20;;;3.00;;
209;SDS011;90;48.810;9.120;2023-07-20T12:16:52;3.93;;;3.73;;
209;SDS011;90;48.810;9.120;2023-07-20T12:19:20;3.97;;;3.77;;
209;SDS011;90;48.810;9.120;2023-07-20T12:21:47;5.00;;;3.40;;
209;SDS011;90;48.810;9.120;2023-07-20T12:24:14;7.33;;;3.30;;
209;SDS011;90;48.810;9.120;2023-07-20T12:26:43;3.57;;;3.37;;
209;SDS011;90;48.810;9.120;2023-07-20T12:29:13;6.83;;;3.67;;
209;SDS011;90;48.810;9.120;2023-07-20T12:31:41;4.00;;;3.80;;
209;SDS011;90;48.810;9.120;2023-07-20T12:34:11;3.70;;;3.50;;
209;SDS011;90;48.810;9.120;2023-07-20T12:36:38;5.93;;;3.63;;
209;SDS011;90;48.810;9.120;2023-07-20T12:39:05;3.73;;;3.53;;
209;SDS011;90;48.810;9.120;2023-07-20T12:41:34;4.80;;;3.30;;
209;SDS011;90;48.810;9.120;2023-07-20T12:44:04;3.90;;;3.20;;
209;SDS011;90;48.810;9.120;2023-07-20T12:46:33;3.50;;;3.30;;
209;SDS011;90;48.810;9.120;2023-07-20T12:49:03;3.40;;;3.20;;
209;SDS011;90;48.810;9.120;2023-07-20T12:51:31;4.13;;;3.27;;
209;SDS011;90;48.810;9.120;2023-07-20T12:54:01;4.00;;;3.57;;
209;SDS011;90;48.810;9.120;2023-07-20T12:56:28;3.70;;;3.50;;
209;SDS011;90;48.810;9.120;2023-07-20T12:58:55;3.60;;;3.40;;
209;SDS011;90;48.810;9.120;2023-07-20T13:01:23;3.60;;;3.40;;
209;SDS011;90;48.810;9.120;2023-07-20T13:03:50;3.57;;;3.37;;
209;SDS011;90;48.810;9.120;2023-07-20T13:06:20;4.10;;;3.90;;
209;SDS011;90;48.810;9.120;2023-07-20T13:08:53;3.80;;;3.60;;
209;SDS011;90;48.810;9.120;2023-07-20T13:11:23;3.50;;;3.20;;
209;SDS011;90;48.810;9.120;2023-07-20T13:13:52;3.80;;;3.57;;
209;SDS011;90;48.810;9.120;2023-07-20T13:16:19;3.50;;;3.30;;
209;SDS011;90;48.810;9.120;2023-07-20T13:18:47;3.67;;;3.47;;
209;SDS011;90;48.810;9.120;2023-07-20T13:21:22;5.03;;;3.47;;
209;SDS011;90;48.810;9.120;2023-07-20T13:23:49;3.40;;;3.20;;
209;SDS011;90;48.810;9.120;2023-07-20T13:26:17;3.60;;;3.17;;
209;SDS011;90;48.810;9.120;2023-07-20T13:28:46;5.93;;;3.70;;
209;SDS011;90;48.810;9.120;2023-07-20T13:31:13;3.90;;;3.70;;
209;SDS011;90;48.810;9.120;2023-07-20T13:33:42;4.67;;;3.40;;
209;SDS011;90;48.810;9.120;2023-07-20T13:36:09;3.70;;;3.50;;
209;SDS011;90;48.810;9.120;2023-07-20T13:38:40;4.53;;;4.03;;
209;SDS011;90;48.810;9.120;2023-07-20T13:41:10;4.53;;;3.60;;
209;SDS011;90;48.810;9.120;2023-07-20T13:43:45;4.30;;;3.67;;
209;SDS011;90;48.810;9.120;2023-07-20T13:46:13;5.33;;;3.77;;
209;SDS011;90;48.810;9.120;2023-07-20T13:48:41;14.80;;;3.70;;
209;SDS011;90;48.810;9.120;2023-07-20T13:51:08;3.70;;;3.50;;
209;SDS011;90;48.810;9.120;2023-07-20T13:53:36;3.30;;;3.10;;
209;SDS011;90;48.810;9.120;2023-07-20T13:56:05;3.87;;;3.67;;
209;SDS011;90;48.810;9.120;2023-07-20T13:58:36;5.17;;;3.70;;
209;SDS011;90;48.810;9.120;2023-07-20T14:01:03;4.33;;;3.37;;
209;SDS011;90;48.810;9.120;2023-07-20T14:03:30;3.80;;;3.60;;
209;SDS011;90;48.810;9.120;2023-07-20T14:05:57;6.10;;;4.20;;
209;SDS011;90;48.810;9.120;2023-07-20T14:08:25;4.00;;;3.80;;
209;SDS011;90;48.810;9.120;2023-07-20T14:10:55;7.37;;;4.13;;
209;SDS011;90;48.810;9.120;2023-07-20T14:13:23;3.77;;;3.57;;
209;SDS011;90;48.810;9.120;2023-07-20T14:15:51;3.43;;;3.23;;
209;SDS011;90;48.810;9.120;2023-07-20T14:18:18;3.70;;;3.50;;
209;SDS011;90;48.810;9.120;2023-07-20T14:20:45;3.77;;;3.33;;
209;SDS011;90;48.810;9.120;2023-07-20T14:23:12;3.80;;;3.27;;
209;SDS011;90;48.810;9.120;2023-07-20T14:25:44;3.93;;;3.73;;
209;SDS011;90;48.810;9.120;2023-07-20T14:28:13;4.97;;;3.47;;
209;SDS011;90;48.810;9.120;2023-07-20T14:30:43;3.53;;;3.33;;
209;SDS011;90;48.810;9.120;2023-07-20T14:33:10;3.47;;;3.27;;
209;SDS011;90;48.810;9.120;2023-07-20T14:35:37;3.77;;;3.47;;
209;SDS011;90;48.810;9.120;2023-07-20T14:38:06;3.70;;;3.50;;
209;SDS011;90;48.810;9.120;2023-07-20T14:40:37;4.80;;;3.40;;
209;SDS011;90;48.810;9.120;2023-07-20T14:43:05;3.90;;;3.70;;
209;SDS011;90;48.810;9.120;2023-07-20T14:45:32;3.60;;;3.40;;
209;SDS011;90;48.810;9.120;2023-07-20T14:48:05;3.50;;;3.30;;
209;SDS011;90;48.810;9.120;2023-07-20T14:50:32;6.77;;;3.30;;
209;SDS011;90;48.810;9.120;2023-07-20T14:52:59;3.30;;;3.10;;
209;SDS011;90;48.810;9.120;2023-07-20T14:55:26;6.90;;;3.50;;
209;SDS011;90;48.810;9.120;2023-07-20T14:57:54;4.03;;;3.83;;
209;SDS011;90;48.810;9.120;2023-07-20T15:00:23;3.70;;;3.50;;
209;SDS011;90;48.810;9.120;2023-07-20T15:02:52;3.83;;;3.63;;
209;SDS011;90;48.810;9.120;2023-07-20T15:05:22;3.70;;;3.50;;
209;SDS011;90;48.810;9.120;2023-07-20T15:07:51;4.20;;;3.57;;
209;SDS011;90;48.810;9.120;2023-07-20T15:10:18;4.93;;;3.07;;
209;SDS011;90;48.810;9.120;2023-07-20T15:12:47;3.50;;;3.30;;
209;SDS011;90;48.810;9.120;2023-07-20T15:15:14;4.50;;;3.43;;
209;SDS011;90;48.810;9.120;2023-07-20T15:17:44;3.33;;;3.13;;
209;SDS011;90;48.810;9.120;2023-07-20T15:20:19;4.23;;;3.43;;
209;SDS011;90;48.810;9.120;2023-07-20T15:22:47;5.07;;;3.30;;
209;SDS011;90;48.810;9.120;2023-07-20T15:25:15;5.93;;;3.33;;
209;SDS011;90;48.810;9.120;2023-07-20T15:27:44;4.43;;;3.33;;
209;SDS011;90;48.810;9.120;2023-07-20T15:30:13;3.97;;;3.77;;
209;SDS011;90;48.810;9.120;2023-07-20T15:32:44;3.80;;;3.60;;
209;SDS011;90;48.810;9.120;2023-07-20T15:35:19;3.47;;;3.27;;
209;SDS011;90;48.810;9.120;2023-07-20T15:37:47;4.15;;;3.30;;
209;SDS011;90;48.810;9.120;2023-07-20T15:40:14;4.83;;;3.70;;
209;SDS011;90;48.810;9.120;2023-07-20T15:42:44;3.50;;;3.30;;
209;SDS011;90;48.810;9.120;2023-07-20T15:45:17;4.80;;;3.47;;
209;SDS011;90;48.810;9.120;2023-07-20T15:47:52;3.80;;;3.57;;
209;SDS011;90;48.810;9.120;2023-07-20T15:50:20;3.77;;;3.57;;
209;SDS011;90;48.810;9.120;2023-07-20T15:52:49;3.53;;;3.33;;
209;SDS011;90;48.810;9.120;2023-07-20T15:55:28;3.40;;;3.20;;
209;SDS011;90;48.810;9.120;2023-07-20T15:58:00;3.80;;;3.60;;
209;SDS011;90;48.810;9.120;2023-07-20T16:00:30;2.90;;;2.70;;
209;SDS011;90;48.810;9.120;2023-07-20T16:02:57;3.80;;;2.90;;
209;SDS011;90;48.810;9.120;2023-07-20T16:05:25;6.33;;;3.50;;
209;SDS011;90;48.810;9.120;2023-07-20T16:07:54;3.57;;;3.40;;
209;SDS011;90;48.810;9.120;2023-07-20T16:10:22;4.97;;;3.57;;
209;SDS011;90;48.810;9.120;2023-07-20T16:12:50;3.23;;;3.03;;
209;SDS011;90;48.810;9.120;2023-07-20T16:15:19;4.30;;;3.70;;
209;SDS011;90;48.810;9.120;2023-07-20T16:17:46;3.80;;;3.60;;
209;SDS011;90;48.810;9.120;2023-07-20T16:20:13;3.80;;;3.60;;
209;SDS011;90;48.810;9.120;2023-07-20T16:22:41;7.93;;;3.97;;
209;SDS011;90;48.810;9.120;2023-07-20T16:25:11;3.53;;;3.33;;
209;SDS011;90;48.810;9.120;2023-07-20T16:27:41;4.00;;;3.80;;
209;SDS011;90;48.810;9.120;2023-07-20T16:30:09;3.00;;;2.80;;